Eminent Ace — 7JUL — position and weather

sailwx.info

Track history (hours):
 
Tides and Currents Weather Stations Pressure Air Temp Water Temp Dewpoint Dewpoint Depression Visibility Wind Speed Wind Dir Waves Ship Positions

Eminent Ace

Last reported at 2018-Jul-15 20:30 UTC. Time now 2018-Jul-15 20:46 UTC.
Position N 48°22' W 123°22'.

Length 199 m; draft 8.4 m.

Type: Cargo ship. MMSI: 431205000.

Date/timePositionNaut miles runAvg speedWind from/ knotsBaromVisibWave heightAir tempDewpointWater temp
2018-Jul-15 20:30N 48°22' W 123°22'510.7
2018-Jul-15 20:00N 48°17' W 123°26'4 7.0
2018-Jul-15 19:22N 48°14' W 123°30'1011.4
2018-Jul-15 18:27N 48°13' W 123°46'611.9
2018-Jul-15 17:57N 48°13' W 123°55'612.9
2018-Jul-15 17:30N 48°16' W 124°03'712.5
2018-Jul-15 16:58N 48°19' W 124°12'612.8
2018-Jul-15 16:30N 48°21' W 124°20'611.8
2018-Jul-15 16:00N 48°24' W 124°28'611.5
2018-Jul-15 15:30N 48°26' W 124°36'611.2
2018-Jul-15 15:00N 48°28' W 124°43'611.4
2018-Jul-15 14:29N 48°28' W 124°53'612.8
2018-Jul-15 14:00N 48°27' W 125°01'714.8
2018-Jul-15 13:30N 48°20' W 125°05'816.3
2018-Jul-15 13:00N 48°12' W 125°09'1116.5
2018-Jul-15 12:21N 48°02' W 125°13'616.5
2018-Jul-15 12:00N 47°56' W 125°15'815.7
2018-Jul-15 11:30N 47°49' W 125°16'816.4
2018-Jul-15 11:00N 47°41' W 125°12'816.1
2018-Jul-15 10:30N 47°33' W 125°08'816.1
2018-Jul-15 10:00N 47°26' W 125°04'816.2
2018-Jul-15 09:30N 47°18' W 124°60'816.5
2018-Jul-15 09:00N 47°10' W 124°55'816.5
2018-Jul-15 08:30N 47°03' W 124°51'816.5
2018-Jul-15 08:00N 46°55' W 124°47'816.6
2018-Jul-15 07:30N 46°47' W 124°43'916.6
2018-Jul-15 06:59N 46°39' W 124°38'816.6
2018-Jul-15 06:30N 46°32' W 124°34'816.7
2018-Jul-15 06:00N 46°24' W 124°30'917.3
2018-Jul-15 05:30N 46°18' W 124°21'611.5
2018-Jul-15 05:00N 46°13' W 124°15'3 6.7
2018-Jul-15 04:30N 46°13' W 124°10'713.4
2018-Jul-15 04:00N 46°15' W 124°01'713.7
2018-Jul-15 03:30N 46°11' W 123°53'5 9.8
2018-Jul-15 03:01N 46°13' W 123°46'713.2
2018-Jul-15 02:30N 46°16' W 123°38'713.2
2018-Jul-15 02:00N 46°16' W 123°28'612.7
2018-Jul-15 01:31N 46°10' W 123°25'712.9
2018-Jul-15 01:00N 46°09' W 123°15'713.2
2018-Jul-15 00:30N 46°11' W 123°06'713.9
2018-Jul-15 00:00N 46°07' W 122°58'7 8.9
2018-Jul-14 23:13N 46°01' W 122°52'313.0
2018-Jul-14 23:00N 45°59' W 122°50'713.0
2018-Jul-14 22:30N 45°52' W 122°47'713.1
2018-Jul-14 22:00N 45°46' W 122°46'612.8
2018-Jul-14 21:30N 45°40' W 122°46'4 7.4
2018-Jul-14 21:00N 45°36' W 122°47'0 0.2
2018-Jul-14 20:26N 45°36' W 122°47'0 0.0
2018-Jul-14 19:59N 45°36' W 122°47'0 0.0
2018-Jul-14 19:29N 45°36' W 122°47'0 0.0
2018-Jul-14 18:53N 45°36' W 122°47'0 0.0
2018-Jul-14 18:26N 45°36' W 122°47'0 0.0
2018-Jul-14 17:59N 45°36' W 122°47'0 0.0
2018-Jul-14 17:29N 45°36' W 122°47'0 0.0
2018-Jul-14 16:56N 45°36' W 122°47'0 0.0
2018-Jul-14 16:29N 45°36' W 122°47'0 0.0
2018-Jul-14 15:59N 45°36' W 122°47'0 0.0
2018-Jul-14 15:29N 45°36' W 122°47'0 0.0
2018-Jul-14 14:59N 45°36' W 122°47'0 0.0
2018-Jul-14 14:29N 45°36' W 122°47'0 0.0
2018-Jul-14 13:29N 45°36' W 122°47'0 0.0
2018-Jul-14 12:59N 45°36' W 122°47'0 0.0
2018-Jul-14 12:26N 45°36' W 122°47'0 0.0
2018-Jul-14 11:58N 45°36' W 122°47'0 0.0
2018-Jul-14 11:26N 45°36' W 122°47'0 0.0
2018-Jul-14 10:58N 45°36' W 122°47'0 0.0
2018-Jul-14 10:29N 45°36' W 122°47'0 0.0
2018-Jul-14 09:59N 45°36' W 122°47'0 0.0
2018-Jul-14 09:08N 45°36' W 122°47'0 0.0
2018-Jul-14 08:59N 45°36' W 122°47'0 0.0
2018-Jul-14 08:29N 45°36' W 122°47'0 0.0
2018-Jul-14 07:59N 45°36' W 122°47'0 0.0
2018-Jul-14 07:26N 45°36' W 122°47'0 0.0
2018-Jul-14 06:59N 45°36' W 122°47'0 0.0
2018-Jul-14 06:28N 45°36' W 122°47'0 0.0
2018-Jul-14 05:59N 45°36' W 122°47'0 0.0
2018-Jul-14 05:26N 45°36' W 122°47'0 0.0
2018-Jul-14 04:55N 45°36' W 122°47'0 0.0
2018-Jul-14 04:30N 45°36' W 122°47'0 0.0
2018-Jul-14 03:53N 45°36' W 122°47'0 0.0
2018-Jul-14 03:26N 45°36' W 122°47'0 0.0
2018-Jul-14 02:53N 45°36' W 122°47'0 0.0
2018-Jul-14 02:29N 45°36' W 122°47'0 0.0
2018-Jul-14 01:41N 45°36' W 122°47'0 0.0
2018-Jul-14 01:29N 45°36' W 122°47'0 0.0
2018-Jul-14 00:59N 45°36' W 122°47'0 0.0
2018-Jul-14 00:29N 45°36' W 122°47'0 0.0
2018-Jul-13 23:41N 45°36' W 122°47'0 0.0
2018-Jul-13 23:28N 45°36' W 122°47'0 0.0
2018-Jul-13 22:53N 45°36' W 122°47'0 0.0
2018-Jul-13 22:26N 45°36' W 122°47'0 0.0
2018-Jul-13 21:59N 45°36' W 122°47'0 0.0
2018-Jul-13 21:23N 45°36' W 122°47'0 0.0
2018-Jul-13 20:56N 45°36' W 122°47'0 0.0
2018-Jul-13 20:11N 45°36' W 122°47'0 0.0
2018-Jul-13 19:59N 45°36' W 122°47'0 0.0
2018-Jul-13 19:26N 45°36' W 122°47'0 0.0
2018-Jul-13 18:59N 45°36' W 122°47'0 0.0
2018-Jul-13 18:19N 45°36' W 122°47'0 0.0
2018-Jul-13 17:56N 45°36' W 122°47'0 0.0
2018-Jul-13 17:28N 45°36' W 122°47'0 0.0
2018-Jul-13 16:59N 45°36' W 122°47'0 0.0
2018-Jul-13 16:29N 45°36' W 122°47'0 0.0
2018-Jul-13 15:59N 45°36' W 122°47'0 0.0
2018-Jul-13 15:29N 45°36' W 122°47'0 0.0
2018-Jul-13 14:59N 45°36' W 122°47'0 0.0
2018-Jul-13 13:59N 45°36' W 122°47'0 0.0
2018-Jul-13 13:29N 45°36' W 122°47'0 0.0
2018-Jul-13 12:56N 45°36' W 122°47'0 0.0
2018-Jul-13 12:28N 45°36' W 122°47'0 0.0
2018-Jul-13 11:50N 45°36' W 122°47'0 0.0
2018-Jul-13 11:29N 45°36' W 122°47'0 0.0
2018-Jul-13 10:37N 45°36' W 122°47'0 0.0
2018-Jul-13 10:26N 45°36' W 122°47'0 0.0
2018-Jul-13 09:59N 45°36' W 122°47'0 0.0
2018-Jul-13 09:22N 45°36' W 122°47'0 0.0
2018-Jul-13 08:59N 45°36' W 122°47'0 0.0
2018-Jul-13 08:23N 45°36' W 122°47'0 0.0
2018-Jul-13 07:56N 45°36' W 122°47'0 0.0
2018-Jul-13 07:29N 45°36' W 122°47'0 0.0
2018-Jul-13 06:59N 45°36' W 122°47'0 0.0
2018-Jul-13 06:28N 45°36' W 122°47'0 0.0
2018-Jul-13 05:56N 45°36' W 122°47'0 0.0
2018-Jul-13 05:28N 45°36' W 122°47'0 0.0
2018-Jul-13 04:59N 45°36' W 122°47'0 0.0
2018-Jul-13 04:26N 45°36' W 122°47'0 0.0
2018-Jul-13 03:56N 45°36' W 122°47'0 0.0
2018-Jul-13 03:23N 45°36' W 122°47'0 0.0
2018-Jul-13 02:55N 45°36' W 122°47'0 0.0
2018-Jul-13 02:26N 45°36' W 122°47'0 0.0
2018-Jul-13 01:59N 45°36' W 122°47'0 0.0
2018-Jul-13 01:26N 45°36' W 122°47'0 0.0
2018-Jul-13 00:56N 45°36' W 122°47'0 0.0
2018-Jul-13 00:30N 45°36' W 122°47'1 3.0
2018-Jul-13 00:01N 45°37' W 122°47'4 8.6
2018-Jul-12 23:30N 45°41' W 122°47'713.1
2018-Jul-12 23:00N 45°48' W 122°47'713.4
2018-Jul-12 22:31N 45°55' W 122°49'713.5
2018-Jul-12 22:00N 46°01' W 122°52'611.6
2018-Jul-12 21:30N 46°06' W 122°56'611.5
2018-Jul-12 21:00N 46°09' W 123°03'713.0
2018-Jul-12 20:30N 46°10' W 123°12'911.8
2018-Jul-12 19:44N 46°11' W 123°25'312.2
2018-Jul-12 19:30N 46°13' W 123°25'611.9
2018-Jul-12 19:00N 46°15' W 123°33'714.2
2018-Jul-12 18:30N 46°14' W 123°43'611.8
2018-Jul-12 18:00N 46°12' W 123°52'914.5
2018-Jul-12 17:22N 46°15' W 124°04'514.6
2018-Jul-12 17:01N 46°12' W 124°10'611.6
2018-Jul-12 16:30N 46°10' W 124°18'2 3.2
2018-Jul-12 16:00N 46°10' W 124°20'5 9.1
2018-Jul-12 15:30N 46°10' W 124°27'713.8
2018-Jul-12 15:00N 46°10' W 124°36'714.9
2018-Jul-12 14:30N 46°11' W 124°47'1 2.9
2018-Jul-12 14:00N 46°12' W 124°49'2 4.5
2018-Jul-12 13:30N 46°13' W 124°51'714.8
2018-Jul-12 13:00N 46°11' W 125°02'1115.5
2018-Jul-12 12:17N 46°10' W 125°18'415.8
2018-Jul-12 12:00N 46°10' W 125°24'815.7
2018-Jul-12 11:29N 46°11' W 125°36'1515.6
2018-Jul-12 10:32N 46°10' W 125°58'013.8
2018-Jul-12 10:30N 46°10' W 125°58'1215.3
2018-Jul-12 09:42N 46°11' W 126°16'3615.3
2018-Jul-12 07:23N 46°10' W 127°07'  
Track history (hours):
 
Tides and Currents Weather Stations Pressure Air Temp Water Temp Dewpoint Dewpoint Depression Visibility Wind Speed Wind Dir Waves Ship Positions

Eminent Ace

Last reported at 2018-Jul-15 20:30 UTC. Time now 2018-Jul-15 20:46 UTC.
Position N 48°22' W 123°22'.

Length 199 m; draft 8.4 m.

Type: Cargo ship. MMSI: 431205000.

Date/timePositionNaut miles runAvg speedWind from/ knotsBaromVisibWave heightAir tempDewpointWater temp
2018-Jul-15 20:30N 48°22' W 123°22'510.7
2018-Jul-15 20:00N 48°17' W 123°26'4 7.0
2018-Jul-15 19:22N 48°14' W 123°30'1011.4
2018-Jul-15 18:27N 48°13' W 123°46'611.9
2018-Jul-15 17:57N 48°13' W 123°55'612.9
2018-Jul-15 17:30N 48°16' W 124°03'712.5
2018-Jul-15 16:58N 48°19' W 124°12'612.8
2018-Jul-15 16:30N 48°21' W 124°20'611.8
2018-Jul-15 16:00N 48°24' W 124°28'611.5
2018-Jul-15 15:30N 48°26' W 124°36'611.2
2018-Jul-15 15:00N 48°28' W 124°43'611.4
2018-Jul-15 14:29N 48°28' W 124°53'612.8
2018-Jul-15 14:00N 48°27' W 125°01'714.8
2018-Jul-15 13:30N 48°20' W 125°05'816.3
2018-Jul-15 13:00N 48°12' W 125°09'1116.5
2018-Jul-15 12:21N 48°02' W 125°13'616.5
2018-Jul-15 12:00N 47°56' W 125°15'815.7
2018-Jul-15 11:30N 47°49' W 125°16'816.4
2018-Jul-15 11:00N 47°41' W 125°12'816.1
2018-Jul-15 10:30N 47°33' W 125°08'816.1
2018-Jul-15 10:00N 47°26' W 125°04'816.2
2018-Jul-15 09:30N 47°18' W 124°60'816.5
2018-Jul-15 09:00N 47°10' W 124°55'816.5
2018-Jul-15 08:30N 47°03' W 124°51'816.5
2018-Jul-15 08:00N 46°55' W 124°47'816.6
2018-Jul-15 07:30N 46°47' W 124°43'916.6
2018-Jul-15 06:59N 46°39' W 124°38'816.6
2018-Jul-15 06:30N 46°32' W 124°34'816.7
2018-Jul-15 06:00N 46°24' W 124°30'917.3
2018-Jul-15 05:30N 46°18' W 124°21'611.5
2018-Jul-15 05:00N 46°13' W 124°15'3 6.7
2018-Jul-15 04:30N 46°13' W 124°10'713.4
2018-Jul-15 04:00N 46°15' W 124°01'713.7
2018-Jul-15 03:30N 46°11' W 123°53'5 9.8
2018-Jul-15 03:01N 46°13' W 123°46'713.2
2018-Jul-15 02:30N 46°16' W 123°38'713.2
2018-Jul-15 02:00N 46°16' W 123°28'612.7
2018-Jul-15 01:31N 46°10' W 123°25'712.9
2018-Jul-15 01:00N 46°09' W 123°15'713.2
2018-Jul-15 00:30N 46°11' W 123°06'713.9
2018-Jul-15 00:00N 46°07' W 122°58'7 8.9
2018-Jul-14 23:13N 46°01' W 122°52'313.0
2018-Jul-14 23:00N 45°59' W 122°50'713.0
2018-Jul-14 22:30N 45°52' W 122°47'713.1
2018-Jul-14 22:00N 45°46' W 122°46'612.8
2018-Jul-14 21:30N 45°40' W 122°46'4 7.4
2018-Jul-14 21:00N 45°36' W 122°47'0 0.2
2018-Jul-14 20:26N 45°36' W 122°47'0 0.0
2018-Jul-14 19:59N 45°36' W 122°47'0 0.0
2018-Jul-14 19:29N 45°36' W 122°47'0 0.0
2018-Jul-14 18:53N 45°36' W 122°47'0 0.0
2018-Jul-14 18:26N 45°36' W 122°47'0 0.0
2018-Jul-14 17:59N 45°36' W 122°47'0 0.0
2018-Jul-14 17:29N 45°36' W 122°47'0 0.0
2018-Jul-14 16:56N 45°36' W 122°47'0 0.0
2018-Jul-14 16:29N 45°36' W 122°47'0 0.0
2018-Jul-14 15:59N 45°36' W 122°47'0 0.0
2018-Jul-14 15:29N 45°36' W 122°47'0 0.0
2018-Jul-14 14:59N 45°36' W 122°47'0 0.0
2018-Jul-14 14:29N 45°36' W 122°47'0 0.0
2018-Jul-14 13:29N 45°36' W 122°47'0 0.0
2018-Jul-14 12:59N 45°36' W 122°47'0 0.0
2018-Jul-14 12:26N 45°36' W 122°47'0 0.0
2018-Jul-14 11:58N 45°36' W 122°47'0 0.0
2018-Jul-14 11:26N 45°36' W 122°47'0 0.0
2018-Jul-14 10:58N 45°36' W 122°47'0 0.0
2018-Jul-14 10:29N 45°36' W 122°47'0 0.0
2018-Jul-14 09:59N 45°36' W 122°47'0 0.0
2018-Jul-14 09:08N 45°36' W 122°47'0 0.0
2018-Jul-14 08:59N 45°36' W 122°47'0 0.0
2018-Jul-14 08:29N 45°36' W 122°47'0 0.0
2018-Jul-14 07:59N 45°36' W 122°47'0 0.0
2018-Jul-14 07:26N 45°36' W 122°47'0 0.0
2018-Jul-14 06:59N 45°36' W 122°47'0 0.0
2018-Jul-14 06:28N 45°36' W 122°47'0 0.0
2018-Jul-14 05:59N 45°36' W 122°47'0 0.0
2018-Jul-14 05:26N 45°36' W 122°47'0 0.0
2018-Jul-14 04:55N 45°36' W 122°47'0 0.0
2018-Jul-14 04:30N 45°36' W 122°47'0 0.0
2018-Jul-14 03:53N 45°36' W 122°47'0 0.0
2018-Jul-14 03:26N 45°36' W 122°47'0 0.0
2018-Jul-14 02:53N 45°36' W 122°47'0 0.0
2018-Jul-14 02:29N 45°36' W 122°47'0 0.0
2018-Jul-14 01:41N 45°36' W 122°47'0 0.0
2018-Jul-14 01:29N 45°36' W 122°47'0 0.0
2018-Jul-14 00:59N 45°36' W 122°47'0 0.0
2018-Jul-14 00:29N 45°36' W 122°47'0 0.0
2018-Jul-13 23:41N 45°36' W 122°47'0 0.0
2018-Jul-13 23:28N 45°36' W 122°47'0 0.0
2018-Jul-13 22:53N 45°36' W 122°47'0 0.0
2018-Jul-13 22:26N 45°36' W 122°47'0 0.0
2018-Jul-13 21:59N 45°36' W 122°47'0 0.0
2018-Jul-13 21:23N 45°36' W 122°47'0 0.0
2018-Jul-13 20:56N 45°36' W 122°47'0 0.0
2018-Jul-13 20:11N 45°36' W 122°47'0 0.0
2018-Jul-13 19:59N 45°36' W 122°47'0 0.0
2018-Jul-13 19:26N 45°36' W 122°47'0 0.0
2018-Jul-13 18:59N 45°36' W 122°47'0 0.0
2018-Jul-13 18:19N 45°36' W 122°47'0 0.0
2018-Jul-13 17:56N 45°36' W 122°47'0 0.0
2018-Jul-13 17:28N 45°36' W 122°47'0 0.0
2018-Jul-13 16:59N 45°36' W 122°47'0 0.0
2018-Jul-13 16:29N 45°36' W 122°47'0 0.0
2018-Jul-13 15:59N 45°36' W 122°47'0 0.0
2018-Jul-13 15:29N 45°36' W 122°47'0 0.0
2018-Jul-13 14:59N 45°36' W 122°47'0 0.0
2018-Jul-13 13:59N 45°36' W 122°47'0 0.0
2018-Jul-13 13:29N 45°36' W 122°47'0 0.0
2018-Jul-13 12:56N 45°36' W 122°47'0 0.0
2018-Jul-13 12:28N 45°36' W 122°47'0 0.0
2018-Jul-13 11:50N 45°36' W 122°47'0 0.0
2018-Jul-13 11:29N 45°36' W 122°47'0 0.0
2018-Jul-13 10:37N 45°36' W 122°47'0 0.0
2018-Jul-13 10:26N 45°36' W 122°47'0 0.0
2018-Jul-13 09:59N 45°36' W 122°47'0 0.0
2018-Jul-13 09:22N 45°36' W 122°47'0 0.0
2018-Jul-13 08:59N 45°36' W 122°47'0 0.0
2018-Jul-13 08:23N 45°36' W 122°47'0 0.0
2018-Jul-13 07:56N 45°36' W 122°47'0 0.0
2018-Jul-13 07:29N 45°36' W 122°47'0 0.0
2018-Jul-13 06:59N 45°36' W 122°47'0 0.0
2018-Jul-13 06:28N 45°36' W 122°47'0 0.0
2018-Jul-13 05:56N 45°36' W 122°47'0 0.0
2018-Jul-13 05:28N 45°36' W 122°47'0 0.0
2018-Jul-13 04:59N 45°36' W 122°47'0 0.0
2018-Jul-13 04:26N 45°36' W 122°47'0 0.0
2018-Jul-13 03:56N 45°36' W 122°47'0 0.0
2018-Jul-13 03:23N 45°36' W 122°47'0 0.0
2018-Jul-13 02:55N 45°36' W 122°47'0 0.0
2018-Jul-13 02:26N 45°36' W 122°47'0 0.0
2018-Jul-13 01:59N 45°36' W 122°47'0 0.0
2018-Jul-13 01:26N 45°36' W 122°47'0 0.0
2018-Jul-13 00:56N 45°36' W 122°47'0 0.0
2018-Jul-13 00:30N 45°36' W 122°47'1 3.0
2018-Jul-13 00:01N 45°37' W 122°47'4 8.6
2018-Jul-12 23:30N 45°41' W 122°47'713.1
2018-Jul-12 23:00N 45°48' W 122°47'713.4
2018-Jul-12 22:31N 45°55' W 122°49'713.5
2018-Jul-12 22:00N 46°01' W 122°52'611.6
2018-Jul-12 21:30N 46°06' W 122°56'611.5
2018-Jul-12 21:00N 46°09' W 123°03'713.0
2018-Jul-12 20:30N 46°10' W 123°12'911.8
2018-Jul-12 19:44N 46°11' W 123°25'312.2
2018-Jul-12 19:30N 46°13' W 123°25'611.9
2018-Jul-12 19:00N 46°15' W 123°33'714.2
2018-Jul-12 18:30N 46°14' W 123°43'611.8
2018-Jul-12 18:00N 46°12' W 123°52'914.5
2018-Jul-12 17:22N 46°15' W 124°04'514.6
2018-Jul-12 17:01N 46°12' W 124°10'611.6
2018-Jul-12 16:30N 46°10' W 124°18'2 3.2
2018-Jul-12 16:00N 46°10' W 124°20'5 9.1
2018-Jul-12 15:30N 46°10' W 124°27'713.8
2018-Jul-12 15:00N 46°10' W 124°36'714.9
2018-Jul-12 14:30N 46°11' W 124°47'1 2.9
2018-Jul-12 14:00N 46°12' W 124°49'2 4.5
2018-Jul-12 13:30N 46°13' W 124°51'714.8
2018-Jul-12 13:00N 46°11' W 125°02'1115.5
2018-Jul-12 12:17N 46°10' W 125°18'415.8
2018-Jul-12 12:00N 46°10' W 125°24'815.7
2018-Jul-12 11:29N 46°11' W 125°36'1515.6
2018-Jul-12 10:32N 46°10' W 125°58'013.8
2018-Jul-12 10:30N 46°10' W 125°58'1215.3
2018-Jul-12 09:42N 46°11' W 126°16'3615.3
2018-Jul-12 07:23N 46°10' W 127°07'  

Dump ship's entire track history